createdAt,value
2023-02-13T00:02:46.474Z,0.08
2023-02-13T00:05:53.310Z,0.12
2023-02-13T00:08:59.244Z,0.17
2023-02-13T00:12:06.225Z,-0.00
2023-02-13T00:15:14.841Z,-0.03
2023-02-13T00:18:21.572Z,-0.06
2023-02-13T00:21:27.473Z,0.05
2023-02-13T00:24:34.193Z,0.03
2023-02-13T00:27:40.052Z,0.11
2023-02-13T00:30:49.418Z,0.11
2023-02-13T00:33:55.766Z,0.09
2023-02-13T00:37:02.393Z,0.17
2023-02-13T00:40:11.229Z,0.14
2023-02-13T00:43:20.295Z,0.17
2023-02-13T00:46:29.045Z,0.24
2023-02-13T00:49:35.830Z,0.36
2023-02-13T00:52:41.754Z,0.58
2023-02-13T00:55:48.649Z,0.63
2023-02-13T00:58:54.577Z,0.66
2023-02-13T01:02:03.859Z,0.63
2023-02-13T01:05:11.575Z,0.57
2023-02-13T01:08:20.537Z,0.61
2023-02-13T01:11:26.722Z,0.60
2023-02-13T01:14:33.448Z,0.44
2023-02-13T01:17:42.494Z,0.35
2023-02-13T01:21:00.855Z,0.36
2023-02-13T01:24:09.049Z,0.53
2023-02-13T01:27:17.224Z,0.65
2023-02-13T01:30:24.502Z,0.62
2023-02-13T01:33:34.862Z,0.64
2023-02-13T01:36:40.698Z,0.66
2023-02-13T01:39:47.380Z,0.46
2023-02-13T01:42:53.335Z,0.56
2023-02-13T01:46:03.170Z,0.69
2023-02-13T01:49:29.448Z,0.75
2023-02-13T01:52:40.616Z,0.77
2023-02-13T01:55:55.959Z,0.71
2023-02-13T01:59:10.351Z,0.74
2023-02-13T02:02:17.764Z,0.73
2023-02-13T02:05:33.813Z,0.74
2023-02-13T02:08:40.168Z,0.59
2023-02-13T02:12:02.317Z,0.59
2023-02-13T02:15:12.068Z,0.66
2023-02-13T02:18:21.868Z,0.65
2023-02-13T02:22:19.337Z,0.66
2023-02-13T02:26:20.468Z,0.71
2023-02-13T02:30:11.698Z,0.79
2023-02-13T02:33:43.405Z,0.79
2023-02-13T02:37:14.744Z,0.85
2023-02-13T02:40:36.819Z,0.85
2023-02-13T02:44:01.871Z,0.89
2023-02-13T02:47:35.233Z,0.95
2023-02-13T02:50:56.862Z,0.90
2023-02-13T02:54:26.693Z,0.95
2023-02-13T02:57:49.361Z,1.01
2023-02-13T03:01:28.934Z,0.99
2023-02-13T03:04:56.191Z,0.99
2023-02-13T03:08:07.365Z,1.09
2023-02-13T03:11:41.572Z,1.07
2023-02-13T03:14:47.545Z,1.09
2023-02-13T03:18:06.971Z,1.13
2023-02-13T03:21:38.391Z,1.05
2023-02-13T03:25:05.498Z,1.09
2023-02-13T03:28:43.201Z,0.97
2023-02-13T03:32:02.628Z,1.05
2023-02-13T03:35:41.816Z,1.01
2023-02-13T03:39:01.548Z,1.09
2023-02-13T03:42:22.335Z,1.06
2023-02-13T03:45:47.946Z,1.04
2023-02-13T03:49:08.772Z,1.00
2023-02-13T03:52:28.099Z,1.04
2023-02-13T03:55:54.387Z,1.04
2023-02-13T03:59:17.851Z,1.00
2023-02-13T04:02:35.767Z,1.10
2023-02-13T04:05:50.153Z,1.02
2023-02-13T04:08:56.286Z,0.97
2023-02-13T04:12:17.357Z,1.05
2023-02-13T04:15:37.594Z,1.04
2023-02-13T04:18:47.053Z,1.01
2023-02-13T04:22:01.235Z,0.96
2023-02-13T04:25:08.633Z,0.95
2023-02-13T04:28:14.687Z,0.96
2023-02-13T04:31:24.043Z,1.01
2023-02-13T04:34:30.078Z,1.05
2023-02-13T04:37:36.747Z,1.07
2023-02-13T04:40:42.561Z,1.07
2023-02-13T04:43:49.332Z,1.12
2023-02-13T04:46:57.803Z,1.06
2023-02-13T04:50:04.610Z,1.13
2023-02-13T04:53:10.615Z,1.15
2023-02-13T04:56:19.634Z,1.05
2023-02-13T04:59:25.808Z,1.14
2023-02-13T05:02:35.636Z,1.11
2023-02-13T05:05:43.479Z,1.07
2023-02-13T05:08:50.392Z,1.11
2023-02-13T05:11:57.016Z,1.02
2023-02-13T05:15:03.712Z,1.05
2023-02-13T05:18:12.162Z,1.09
2023-02-13T05:21:31.244Z,1.23
2023-02-13T05:24:37.048Z,1.15
2023-02-13T05:27:43.830Z,1.09
2023-02-13T05:30:50.064Z,1.06
2023-02-13T05:33:59.443Z,0.88
2023-02-13T05:37:05.501Z,0.81
2023-02-13T05:40:14.078Z,0.61
2023-02-13T05:43:19.951Z,0.55
2023-02-13T05:46:27.151Z,0.53
2023-02-13T05:49:35.607Z,0.54
2023-02-13T05:52:42.282Z,0.63
2023-02-13T05:55:48.170Z,0.62
2023-02-13T05:58:55.942Z,0.76
2023-02-13T06:02:01.907Z,0.78
2023-02-13T06:05:11.630Z,0.85
2023-02-13T06:08:17.488Z,0.87
2023-02-13T06:11:24.644Z,0.76
2023-02-13T06:14:30.509Z,0.65
2023-02-13T06:17:37.307Z,0.70
2023-02-13T06:20:45.854Z,0.76
2023-02-13T06:23:52.601Z,0.75
2023-02-13T06:26:58.784Z,0.84
2023-02-13T06:30:05.528Z,0.88
2023-02-13T06:33:11.699Z,0.91
2023-02-13T06:36:21.118Z,0.89
2023-02-13T06:39:27.000Z,0.89
2023-02-13T06:42:33.679Z,0.82
2023-02-13T06:45:40.771Z,0.77
2023-02-13T06:48:56.550Z,0.98
2023-02-13T06:52:05.817Z,1.06
2023-02-13T06:55:12.537Z,1.15
2023-02-13T06:58:21.695Z,1.21
2023-02-13T07:01:28.539Z,1.19
2023-02-13T07:04:34.435Z,1.25
2023-02-13T07:07:50.728Z,1.31
2023-02-13T07:10:57.026Z,1.60
2023-02-13T07:14:04.959Z,1.82
2023-02-13T07:17:11.697Z,1.86
2023-02-13T07:20:18.602Z,1.66
2023-02-13T07:23:27.391Z,1.85
2023-02-13T07:26:36.003Z,2.26
2023-02-13T07:29:41.953Z,2.73
2023-02-13T07:32:48.738Z,3.46
2023-02-13T07:35:56.284Z,3.42
2023-02-13T07:39:11.769Z,3.25
2023-02-13T07:42:17.572Z,3.66
2023-02-13T07:45:24.413Z,4.27
2023-02-13T07:48:32.016Z,4.50
2023-02-13T07:51:38.793Z,4.29
2023-02-13T07:54:50.090Z,4.34
2023-02-13T07:57:57.054Z,4.00
2023-02-13T08:01:08.355Z,4.02
2023-02-13T08:04:15.491Z,4.11
2023-02-13T08:07:21.595Z,3.91
2023-02-13T08:10:45.008Z,3.59
2023-02-13T08:13:50.923Z,3.20
2023-02-13T08:16:58.584Z,3.08
2023-02-13T08:20:04.695Z,3.02
2023-02-13T08:23:14.975Z,3.00
2023-02-13T08:26:23.536Z,3.25
2023-02-13T08:29:30.344Z,3.17
2023-02-13T08:32:52.828Z,3.15
2023-02-13T08:36:00.583Z,3.26
2023-02-13T08:39:06.876Z,3.25
2023-02-13T08:42:16.577Z,3.35
2023-02-13T08:45:22.472Z,3.23
2023-02-13T08:48:29.363Z,3.18
2023-02-13T08:51:35.758Z,3.18
2023-02-13T08:54:42.579Z,3.14
2023-02-13T08:57:51.113Z,2.99
2023-02-13T09:00:58.088Z,3.08
2023-02-13T09:04:03.967Z,3.07
2023-02-13T09:07:10.751Z,3.43
2023-02-13T09:10:16.614Z,3.43
2023-02-13T09:13:25.959Z,3.26
2023-02-13T09:16:32.013Z,3.29
2023-02-13T09:19:38.687Z,3.32
2023-02-13T09:22:45.260Z,3.61
2023-02-13T09:25:51.983Z,3.40
2023-02-13T09:29:00.506Z,3.45
2023-02-13T09:32:09.115Z,3.62
2023-02-13T09:35:15.568Z,3.85
2023-02-13T09:38:22.314Z,4.08
2023-02-13T09:41:34.244Z,4.23
2023-02-13T09:44:48.721Z,4.18
2023-02-13T09:47:55.033Z,4.11
2023-02-13T09:51:03.521Z,4.05
2023-02-13T09:54:16.787Z,3.99
2023-02-13T09:57:34.172Z,4.01
2023-02-13T10:00:49.043Z,3.83
2023-02-13T10:04:39.689Z,3.66
2023-02-13T10:08:01.118Z,3.56
2023-02-13T10:11:32.345Z,3.70
2023-02-13T10:14:57.238Z,3.83
2023-02-13T10:18:17.992Z,3.64
2023-02-13T10:21:31.561Z,3.48
2023-02-13T10:24:48.169Z,3.67
2023-02-13T10:28:04.449Z,3.35
2023-02-13T10:31:18.780Z,3.17
2023-02-13T10:34:35.353Z,2.99
2023-02-13T10:37:42.876Z,2.74
2023-02-13T10:41:08.385Z,2.67
2023-02-13T10:44:49.666Z,2.78
2023-02-13T10:48:18.177Z,2.70
2023-02-13T10:51:41.101Z,2.64
2023-02-13T10:55:27.870Z,2.66
2023-02-13T10:58:57.811Z,2.89
2023-02-13T11:02:26.539Z,2.93
2023-02-13T11:05:39.913Z,2.89
2023-02-13T11:08:51.389Z,2.62
2023-02-13T11:11:58.498Z,2.47
2023-02-13T11:15:07.777Z,2.64
2023-02-13T11:18:24.878Z,2.71
2023-02-13T11:21:38.896Z,2.95
2023-02-13T11:25:02.630Z,3.27
2023-02-13T11:28:21.248Z,3.35
2023-02-13T11:31:36.366Z,3.08
2023-02-13T11:34:42.568Z,2.94
2023-02-13T11:37:49.302Z,2.78
2023-02-13T11:41:13.250Z,2.92
2023-02-13T11:44:30.496Z,2.86
2023-02-13T11:47:42.136Z,3.09
2023-02-13T11:50:56.890Z,3.13
2023-02-13T11:54:03.496Z,2.99
2023-02-13T11:57:26.258Z,3.01
2023-02-13T12:00:40.428Z,3.02
2023-02-13T12:03:47.214Z,3.11
2023-02-13T12:07:05.649Z,3.14
2023-02-13T12:10:24.703Z,3.28
2023-02-13T12:13:40.446Z,3.40
2023-02-13T12:16:53.855Z,3.48
2023-02-13T12:20:00.382Z,3.61
2023-02-13T12:23:27.910Z,3.62
2023-02-13T12:26:43.721Z,3.46
2023-02-13T12:30:28.672Z,3.54
2023-02-13T12:34:15.805Z,3.42
2023-02-13T12:37:50.328Z,3.44
2023-02-13T12:41:22.377Z,3.55
2023-02-13T12:44:57.112Z,3.56
2023-02-13T12:48:31.375Z,3.52
2023-02-13T12:51:56.578Z,3.32
2023-02-13T12:55:36.169Z,3.24
2023-02-13T12:59:03.970Z,3.27
2023-02-13T13:03:06.461Z,3.23
2023-02-13T13:06:53.756Z,3.18
2023-02-13T13:10:34.153Z,3.07
2023-02-13T13:14:00.956Z,3.08
2023-02-13T13:17:27.262Z,2.97
2023-02-13T13:21:00.107Z,3.06
2023-02-13T13:24:36.990Z,3.01
2023-02-13T13:27:50.811Z,2.96
2023-02-13T13:30:58.890Z,3.09
2023-02-13T13:34:16.862Z,2.99
2023-02-13T13:37:38.725Z,3.03
2023-02-13T13:41:00.036Z,3.16
2023-02-13T13:44:41.027Z,3.33
2023-02-13T13:48:38.415Z,3.27
2023-02-13T13:51:44.478Z,3.24
2023-02-13T13:54:52.447Z,3.33
2023-02-13T13:58:06.812Z,3.39
2023-02-13T14:01:34.827Z,3.28
2023-02-13T14:04:44.390Z,3.29
2023-02-13T14:07:55.432Z,3.28
2023-02-13T14:11:07.217Z,3.31
2023-02-13T14:14:58.310Z,3.35
2023-02-13T14:18:11.487Z,3.34
2023-02-13T14:21:27.715Z,3.27
2023-02-13T14:24:36.311Z,3.28
2023-02-13T14:27:44.203Z,3.20
2023-02-13T14:30:56.888Z,3.28
2023-02-13T14:34:08.508Z,3.09
2023-02-13T14:37:30.302Z,2.88
2023-02-13T14:40:52.650Z,2.35
2023-02-13T14:43:59.374Z,2.31
2023-02-13T14:47:27.242Z,2.22
2023-02-13T14:50:51.027Z,1.93
2023-02-13T14:54:08.352Z,1.71
2023-02-13T14:57:24.699Z,1.92
2023-02-13T15:00:44.523Z,2.13
2023-02-13T15:04:06.396Z,2.27
2023-02-13T15:07:24.275Z,2.35
2023-02-13T15:10:47.152Z,2.49
2023-02-13T15:13:54.104Z,2.61
2023-02-13T15:17:09.167Z,2.58
2023-02-13T15:20:30.451Z,2.51
2023-02-13T15:23:37.981Z,2.40
2023-02-13T15:26:45.079Z,2.44
2023-02-13T15:30:05.004Z,2.53
2023-02-13T15:33:22.528Z,2.55
2023-02-13T15:36:43.358Z,2.55
2023-02-13T15:39:50.088Z,2.48
2023-02-13T15:42:59.213Z,2.37
2023-02-13T15:46:21.579Z,2.27
2023-02-13T15:49:30.483Z,2.05
2023-02-13T15:52:42.698Z,2.14
2023-02-13T15:56:02.264Z,2.22
2023-02-13T15:59:09.428Z,2.06
2023-02-13T16:02:22.737Z,2.09
2023-02-13T16:05:40.367Z,1.98
2023-02-13T16:08:58.162Z,1.95
2023-02-13T16:12:10.127Z,1.85
2023-02-13T16:15:23.965Z,2.01
2023-02-13T16:18:30.678Z,2.00
2023-02-13T16:21:36.872Z,1.98
2023-02-13T16:24:53.879Z,2.02
2023-02-13T16:28:05.913Z,1.98
2023-02-13T16:31:19.993Z,1.94
2023-02-13T16:34:31.179Z,2.01
2023-02-13T16:37:37.886Z,1.91
2023-02-13T16:40:48.952Z,1.61
2023-02-13T16:43:57.473Z,1.67
2023-02-13T16:47:06.018Z,1.68
2023-02-13T16:50:19.221Z,1.70
2023-02-13T16:53:25.309Z,1.75
2023-02-13T16:56:43.515Z,1.70
2023-02-13T17:00:22.680Z,1.72
2023-02-13T17:03:31.175Z,1.75
2023-02-13T17:06:37.074Z,1.70
2023-02-13T17:09:44.145Z,1.72
2023-02-13T17:12:54.692Z,1.73
2023-02-13T17:16:01.708Z,1.72
2023-02-13T17:19:07.865Z,1.85
2023-02-13T17:22:36.426Z,1.80
2023-02-13T17:25:43.826Z,1.77
2023-02-13T17:28:53.218Z,1.81
2023-02-13T17:32:00.879Z,1.84
2023-02-13T17:35:08.259Z,1.78
2023-02-13T17:38:17.581Z,1.85
2023-02-13T17:41:26.553Z,1.88
2023-02-13T17:44:35.243Z,1.94
2023-02-13T17:47:41.963Z,1.92
2023-02-13T17:50:48.521Z,1.98
2023-02-13T17:53:56.826Z,1.93
2023-02-13T17:57:03.108Z,1.86
2023-02-13T18:00:15.110Z,1.93
2023-02-13T18:03:21.081Z,1.87
2023-02-13T18:06:27.862Z,1.78
2023-02-13T18:09:33.897Z,1.87
2023-02-13T18:12:41.892Z,1.95
2023-02-13T18:15:50.522Z,1.94
2023-02-13T18:18:57.416Z,1.87
2023-02-13T18:22:03.427Z,1.87
2023-02-13T18:25:12.063Z,1.75
2023-02-13T18:28:18.035Z,1.64
2023-02-13T18:31:27.446Z,1.69
2023-02-13T18:34:33.442Z,1.73
2023-02-13T18:37:40.656Z,1.77
2023-02-13T18:40:46.687Z,1.86
2023-02-13T18:43:53.459Z,1.79
2023-02-13T18:47:04.987Z,1.66
2023-02-13T18:50:13.777Z,1.57
2023-02-13T18:53:19.825Z,1.76
2023-02-13T18:56:26.717Z,1.81
2023-02-13T18:59:32.832Z,1.75
2023-02-13T19:02:42.294Z,1.78
2023-02-13T19:05:48.233Z,1.80
2023-02-13T19:08:55.124Z,1.91
2023-02-13T19:12:01.206Z,1.98
2023-02-13T19:15:16.845Z,2.02
2023-02-13T19:18:27.723Z,2.06
2023-02-13T19:21:37.830Z,2.02
2023-02-13T19:24:44.523Z,2.07
2023-02-13T19:27:51.748Z,2.07
2023-02-13T19:30:58.323Z,1.97
2023-02-13T19:34:11.617Z,1.97
2023-02-13T19:37:17.717Z,1.98
2023-02-13T19:40:24.517Z,2.04
2023-02-13T19:43:32.286Z,2.10
2023-02-13T19:46:45.924Z,2.08
2023-02-13T19:49:57.861Z,2.10
2023-02-13T19:53:07.922Z,2.16
2023-02-13T19:56:15.391Z,2.12
2023-02-13T19:59:26.583Z,2.15
2023-02-13T20:02:37.908Z,2.15
2023-02-13T20:05:50.124Z,2.06
2023-02-13T20:08:56.299Z,2.02
2023-02-13T20:12:03.123Z,2.02
2023-02-13T20:15:10.405Z,2.10
2023-02-13T20:18:17.546Z,2.14
2023-02-13T20:21:26.461Z,2.17
2023-02-13T20:24:33.342Z,2.09
2023-02-13T20:27:42.699Z,2.11
2023-02-13T20:30:51.753Z,2.18
2023-02-13T20:33:58.736Z,2.25
2023-02-13T20:37:08.173Z,2.27
2023-02-13T20:40:15.991Z,2.32
2023-02-13T20:43:30.135Z,2.25
2023-02-13T20:46:43.521Z,2.31
2023-02-13T20:49:51.154Z,2.36
2023-02-13T20:52:59.640Z,2.37
2023-02-13T20:56:10.841Z,2.35
2023-02-13T20:59:16.733Z,2.42
2023-02-13T21:02:23.479Z,2.36
2023-02-13T21:05:39.936Z,2.30
2023-02-13T21:08:50.008Z,2.27
2023-02-13T21:11:55.971Z,2.42
2023-02-13T21:15:02.663Z,2.42
2023-02-13T21:18:09.770Z,2.38
2023-02-13T21:21:16.971Z,2.42
2023-02-13T21:24:26.655Z,2.23
2023-02-13T21:27:33.408Z,2.14
2023-02-13T21:30:40.058Z,2.15
2023-02-13T21:33:46.985Z,2.19
2023-02-13T21:36:53.178Z,2.26
2023-02-13T21:40:02.542Z,2.30
2023-02-13T21:43:08.545Z,2.32
2023-02-13T21:46:18.684Z,2.32
2023-02-13T21:49:25.293Z,2.43
2023-02-13T21:52:32.191Z,2.38
2023-02-13T21:55:40.786Z,2.32
2023-02-13T21:58:49.291Z,2.25
2023-02-13T22:01:58.296Z,2.30
2023-02-13T22:05:05.150Z,2.37
2023-02-13T22:08:13.910Z,2.34
2023-02-13T22:11:23.411Z,2.34
2023-02-13T22:14:29.317Z,2.32
2023-02-13T22:17:37.918Z,2.31
2023-02-13T22:20:43.843Z,2.36
2023-02-13T22:23:52.681Z,2.38
2023-02-13T22:27:01.287Z,2.43
2023-02-13T22:30:09.734Z,2.27
2023-02-13T22:33:17.049Z,2.29
2023-02-13T22:36:24.415Z,2.20
2023-02-13T22:39:30.372Z,2.23
2023-02-13T22:42:39.738Z,2.21
2023-02-13T22:45:45.762Z,2.21
2023-02-13T22:48:55.025Z,2.12
2023-02-13T22:52:01.048Z,2.07
2023-02-13T22:55:08.748Z,1.99
2023-02-13T22:58:17.382Z,1.89
2023-02-13T23:01:27.486Z,1.77
2023-02-13T23:04:34.130Z,1.81
2023-02-13T23:07:40.869Z,1.86
2023-02-13T23:11:08.142Z,1.77
2023-02-13T23:14:16.609Z,1.85
2023-02-13T23:17:34.880Z,1.89
2023-02-13T23:20:41.970Z,1.79
2023-02-13T23:23:48.019Z,1.77
2023-02-13T23:26:55.253Z,1.84
2023-02-13T23:30:04.774Z,1.83
2023-02-13T23:33:11.686Z,1.83
2023-02-13T23:36:17.539Z,1.83
2023-02-13T23:39:24.716Z,1.71
2023-02-13T23:42:31.017Z,1.72
2023-02-13T23:45:40.724Z,1.84
2023-02-13T23:48:46.911Z,1.75
2023-02-13T23:51:53.704Z,1.77
2023-02-13T23:54:59.562Z,1.60
2023-02-13T23:58:06.320Z,1.53
